sensor_id;sensor_type;location;lat;lon;timestamp;temperature;humidity
8914;DHT22;4492;48.736;9.092;2023-08-06T00:01:47;13.10;99.90
8914;DHT22;4492;48.736;9.092;2023-08-06T00:04:13;13.00;99.90
8914;DHT22;4492;48.736;9.092;2023-08-06T00:06:38;12.90;99.90
8914;DHT22;4492;48.736;9.092;2023-08-06T00:09:04;12.80;99.90
8914;DHT22;4492;48.736;9.092;2023-08-06T00:11:29;12.70;99.90
8914;DHT22;4492;48.736;9.092;2023-08-06T00:13:55;12.70;99.90
8914;DHT22;4492;48.736;9.092;2023-08-06T00:16:20;12.60;99.90
8914;DHT22;4492;48.736;9.092;2023-08-06T00:18:46;12.50;99.90
8914;DHT22;4492;48.736;9.092;2023-08-06T00:21:11;12.40;99.90
8914;DHT22;4492;48.736;9.092;2023-08-06T00:23:40;12.30;99.90
8914;DHT22;4492;48.736;9.092;2023-08-06T00:26:06;12.20;99.90
8914;DHT22;4492;48.736;9.092;2023-08-06T00:28:32;12.20;99.90
8914;DHT22;4492;48.736;9.092;2023-08-06T00:30:57;12.20;99.90
8914;DHT22;4492;48.736;9.092;2023-08-06T00:33:23;12.20;99.90
8914;DHT22;4492;48.736;9.092;2023-08-06T00:35:49;12.10;99.90
8914;DHT22;4492;48.736;9.092;2023-08-06T00:38:15;12.10;99.90
8914;DHT22;4492;48.736;9.092;2023-08-06T00:40:40;12.10;99.90
8914;DHT22;4492;48.736;9.092;2023-08-06T00:43:06;12.10;99.90
8914;DHT22;4492;48.736;9.092;2023-08-06T00:45:35;12.20;99.90
8914;DHT22;4492;48.736;9.092;2023-08-06T00:48:01;12.20;99.90
8914;DHT22;4492;48.736;9.092;2023-08-06T00:50:27;12.20;99.90
8914;DHT22;4492;48.736;9.092;2023-08-06T00:52:53;12.20;99.90
8914;DHT22;4492;48.736;9.092;2023-08-06T00:55:19;12.20;99.90
8914;DHT22;4492;48.736;9.092;2023-08-06T00:57:45;12.20;99.90
8914;DHT22;4492;48.736;9.092;2023-08-06T01:00:11;12.10;99.90
8914;DHT22;4492;48.736;9.092;2023-08-06T01:02:37;12.00;99.90
8914;DHT22;4492;48.736;9.092;2023-08-06T01:05:03;12.00;99.90
8914;DHT22;4492;48.736;9.092;2023-08-06T01:07:51;11.90;99.90
8914;DHT22;4492;48.736;9.092;2023-08-06T01:10:32;11.90;99.90
8914;DHT22;4492;48.736;9.092;2023-08-06T01:16:06;11.80;99.90
8914;DHT22;4492;48.736;9.092;2023-08-06T01:18:32;11.80;99.90
8914;DHT22;4492;48.736;9.092;2023-08-06T01:20:58;11.90;99.90
8914;DHT22;4492;48.736;9.092;2023-08-06T01:23:24;12.00;99.90
8914;DHT22;4492;48.736;9.092;2023-08-06T01:31:33;12.00;99.90
8914;DHT22;4492;48.736;9.092;2023-08-06T01:34:01;12.00;99.90
8914;DHT22;4492;48.736;9.092;2023-08-06T01:36:28;12.00;99.90
8914;DHT22;4492;48.736;9.092;2023-08-06T01:38:53;12.00;99.90
8914;DHT22;4492;48.736;9.092;2023-08-06T01:41:19;12.00;99.90
8914;DHT22;4492;48.736;9.092;2023-08-06T01:43:45;12.00;99.90
8914;DHT22;4492;48.736;9.092;2023-08-06T01:46:10;12.10;99.90
8914;DHT22;4492;48.736;9.092;2023-08-06T01:48:36;12.10;99.90
8914;DHT22;4492;48.736;9.092;2023-08-06T01:51:04;12.10;99.90
8914;DHT22;4492;48.736;9.092;2023-08-06T01:53:29;12.10;99.90
8914;DHT22;4492;48.736;9.092;2023-08-06T01:55:55;12.10;99.90
8914;DHT22;4492;48.736;9.092;2023-08-06T01:58:20;12.00;99.90
8914;DHT22;4492;48.736;9.092;2023-08-06T02:00:46;12.00;99.90
8914;DHT22;4492;48.736;9.092;2023-08-06T02:03:11;12.00;99.90
8914;DHT22;4492;48.736;9.092;2023-08-06T02:05:37;12.00;99.90
8914;DHT22;4492;48.736;9.092;2023-08-06T02:08:02;12.00;99.90
8914;DHT22;4492;48.736;9.092;2023-08-06T02:10:28;12.00;99.90
8914;DHT22;4492;48.736;9.092;2023-08-06T02:12:53;11.90;99.90
8914;DHT22;4492;48.736;9.092;2023-08-06T02:15:19;11.90;99.90
8914;DHT22;4492;48.736;9.092;2023-08-06T02:17:44;11.80;99.90
8914;DHT22;4492;48.736;9.092;2023-08-06T02:20:10;11.80;99.90
8914;DHT22;4492;48.736;9.092;2023-08-06T02:22:36;11.80;99.90
8914;DHT22;4492;48.736;9.092;2023-08-06T02:25:01;11.80;99.90
8914;DHT22;4492;48.736;9.092;2023-08-06T02:27:27;11.80;99.90
8914;DHT22;4492;48.736;9.092;2023-08-06T02:29:52;11.70;99.90
8914;DHT22;4492;48.736;9.092;2023-08-06T02:32:18;11.70;99.90
8914;DHT22;4492;48.736;9.092;2023-08-06T02:34:43;11.70;99.90
8914;DHT22;4492;48.736;9.092;2023-08-06T02:37:09;11.70;99.90
8914;DHT22;4492;48.736;9.092;2023-08-06T02:39:34;11.70;99.90
8914;DHT22;4492;48.736;9.092;2023-08-06T02:42:01;11.70;99.90
8914;DHT22;4492;48.736;9.092;2023-08-06T02:44:29;11.70;99.90
8914;DHT22;4492;48.736;9.092;2023-08-06T02:46:55;11.70;99.90
8914;DHT22;4492;48.736;9.092;2023-08-06T02:49:20;11.70;99.90
8914;DHT22;4492;48.736;9.092;2023-08-06T02:51:46;11.70;99.90
8914;DHT22;4492;48.736;9.092;2023-08-06T02:54:11;11.70;99.90
8914;DHT22;4492;48.736;9.092;2023-08-06T02:56:37;11.70;99.90
8914;DHT22;4492;48.736;9.092;2023-08-06T02:59:03;11.70;99.90
8914;DHT22;4492;48.736;9.092;2023-08-06T03:01:29;11.70;99.90
8914;DHT22;4492;48.736;9.092;2023-08-06T03:03:55;11.80;99.90
8914;DHT22;4492;48.736;9.092;2023-08-06T03:06:20;11.90;99.90
8914;DHT22;4492;48.736;9.092;2023-08-06T03:08:46;12.00;99.90
8914;DHT22;4492;48.736;9.092;2023-08-06T03:11:11;12.00;99.90
8914;DHT22;4492;48.736;9.092;2023-08-06T03:13:37;12.10;99.90
8914;DHT22;4492;48.736;9.092;2023-08-06T03:16:02;12.10;99.90
8914;DHT22;4492;48.736;9.092;2023-08-06T03:18:28;12.20;99.90
8914;DHT22;4492;48.736;9.092;2023-08-06T03:20:53;12.20;99.90
8914;DHT22;4492;48.736;9.092;2023-08-06T03:23:19;12.30;99.90
8914;DHT22;4492;48.736;9.092;2023-08-06T03:25:45;12.40;99.90
8914;DHT22;4492;48.736;9.092;2023-08-06T03:28:11;12.50;99.90
8914;DHT22;4492;48.736;9.092;2023-08-06T03:30:36;12.50;99.90
8914;DHT22;4492;48.736;9.092;2023-08-06T03:33:02;12.60;99.90
8914;DHT22;4492;48.736;9.092;2023-08-06T03:35:27;12.60;99.90
8914;DHT22;4492;48.736;9.092;2023-08-06T03:37:53;12.60;99.90
8914;DHT22;4492;48.736;9.092;2023-08-06T03:40:18;12.70;99.90
8914;DHT22;4492;48.736;9.092;2023-08-06T03:42:44;12.70;99.90
8914;DHT22;4492;48.736;9.092;2023-08-06T03:45:09;12.80;99.90
8914;DHT22;4492;48.736;9.092;2023-08-06T03:47:35;12.90;99.90
8914;DHT22;4492;48.736;9.092;2023-08-06T03:50:01;12.90;99.90
8914;DHT22;4492;48.736;9.092;2023-08-06T03:52:26;12.90;99.90
8914;DHT22;4492;48.736;9.092;2023-08-06T03:54:52;13.00;99.90
8914;DHT22;4492;48.736;9.092;2023-08-06T03:57:17;13.00;99.90
8914;DHT22;4492;48.736;9.092;2023-08-06T03:59:43;13.10;99.90
8914;DHT22;4492;48.736;9.092;2023-08-06T04:02:08;13.10;99.90
8914;DHT22;4492;48.736;9.092;2023-08-06T04:04:34;13.10;99.90
8914;DHT22;4492;48.736;9.092;2023-08-06T04:06:59;13.10;99.90
8914;DHT22;4492;48.736;9.092;2023-08-06T04:09:27;13.10;99.90
8914;DHT22;4492;48.736;9.092;2023-08-06T04:11:53;13.10;99.90
8914;DHT22;4492;48.736;9.092;2023-08-06T04:14:18;13.10;99.90
8914;DHT22;4492;48.736;9.092;2023-08-06T04:16:44;13.10;99.90
8914;DHT22;4492;48.736;9.092;2023-08-06T04:19:10;13.10;99.90
8914;DHT22;4492;48.736;9.092;2023-08-06T04:21:35;13.00;99.90
8914;DHT22;4492;48.736;9.092;2023-08-06T04:24:01;13.00;99.90
8914;DHT22;4492;48.736;9.092;2023-08-06T04:26:27;13.00;99.90
8914;DHT22;4492;48.736;9.092;2023-08-06T04:28:52;13.00;99.90
8914;DHT22;4492;48.736;9.092;2023-08-06T04:31:18;12.90;99.90
8914;DHT22;4492;48.736;9.092;2023-08-06T04:33:43;12.90;99.90
8914;DHT22;4492;48.736;9.092;2023-08-06T04:36:09;12.90;99.90
8914;DHT22;4492;48.736;9.092;2023-08-06T04:38:34;12.90;99.90
8914;DHT22;4492;48.736;9.092;2023-08-06T04:41:02;12.90;99.90
8914;DHT22;4492;48.736;9.092;2023-08-06T04:43:28;12.90;99.90
8914;DHT22;4492;48.736;9.092;2023-08-06T04:45:54;12.90;99.90
8914;DHT22;4492;48.736;9.092;2023-08-06T04:48:20;12.90;99.90
8914;DHT22;4492;48.736;9.092;2023-08-06T04:50:47;13.00;99.90
8914;DHT22;4492;48.736;9.092;2023-08-06T04:53:13;13.00;99.90
8914;DHT22;4492;48.736;9.092;2023-08-06T04:55:39;13.00;99.90
8914;DHT22;4492;48.736;9.092;2023-08-06T04:58:05;13.10;99.90
8914;DHT22;4492;48.736;9.092;2023-08-06T05:00:31;13.20;99.90
8914;DHT22;4492;48.736;9.092;2023-08-06T05:02:57;13.30;99.90
8914;DHT22;4492;48.736;9.092;2023-08-06T05:05:23;13.30;99.90
8914;DHT22;4492;48.736;9.092;2023-08-06T05:07:49;13.30;99.90
8914;DHT22;4492;48.736;9.092;2023-08-06T05:10:15;13.30;99.90
8914;DHT22;4492;48.736;9.092;2023-08-06T05:12:41;13.30;99.90
8914;DHT22;4492;48.736;9.092;2023-08-06T05:15:07;13.20;99.90
8914;DHT22;4492;48.736;9.092;2023-08-06T05:17:32;13.20;99.90
8914;DHT22;4492;48.736;9.092;2023-08-06T05:19:58;13.10;99.90
8914;DHT22;4492;48.736;9.092;2023-08-06T05:22:23;13.10;99.90
8914;DHT22;4492;48.736;9.092;2023-08-06T05:24:49;13.10;99.90
8914;DHT22;4492;48.736;9.092;2023-08-06T05:27:15;13.20;99.90
8914;DHT22;4492;48.736;9.092;2023-08-06T05:29:40;13.30;99.90
8914;DHT22;4492;48.736;9.092;2023-08-06T05:32:06;13.50;99.90
8914;DHT22;4492;48.736;9.092;2023-08-06T05:34:32;13.70;99.90
8914;DHT22;4492;48.736;9.092;2023-08-06T05:36:57;13.90;99.90
8914;DHT22;4492;48.736;9.092;2023-08-06T05:39:23;14.00;99.90
8914;DHT22;4492;48.736;9.092;2023-08-06T05:41:48;14.00;99.90
8914;DHT22;4492;48.736;9.092;2023-08-06T05:44:15;14.00;99.90
8914;DHT22;4492;48.736;9.092;2023-08-06T05:46:41;14.00;99.90
8914;DHT22;4492;48.736;9.092;2023-08-06T05:49:06;14.00;99.90
8914;DHT22;4492;48.736;9.092;2023-08-06T05:51:32;13.90;99.90
8914;DHT22;4492;48.736;9.092;2023-08-06T05:53:57;13.90;99.90
8914;DHT22;4492;48.736;9.092;2023-08-06T05:56:23;13.80;99.90
8914;DHT22;4492;48.736;9.092;2023-08-06T05:58:48;13.80;99.90
8914;DHT22;4492;48.736;9.092;2023-08-06T06:01:16;13.70;99.90
8914;DHT22;4492;48.736;9.092;2023-08-06T06:03:42;13.80;99.90
8914;DHT22;4492;48.736;9.092;2023-08-06T06:06:07;13.80;99.90
8914;DHT22;4492;48.736;9.092;2023-08-06T06:08:33;13.70;99.90
8914;DHT22;4492;48.736;9.092;2023-08-06T06:10:59;13.80;99.90
8914;DHT22;4492;48.736;9.092;2023-08-06T06:13:24;13.80;99.90
8914;DHT22;4492;48.736;9.092;2023-08-06T06:15:50;13.80;99.90
8914;DHT22;4492;48.736;9.092;2023-08-06T06:18:19;13.90;99.90
8914;DHT22;4492;48.736;9.092;2023-08-06T06:20:44;13.90;99.90
8914;DHT22;4492;48.736;9.092;2023-08-06T06:23:10;14.00;99.90
8914;DHT22;4492;48.736;9.092;2023-08-06T06:25:35;14.00;99.90
8914;DHT22;4492;48.736;9.092;2023-08-06T06:28:01;13.90;99.90
8914;DHT22;4492;48.736;9.092;2023-08-06T06:30:26;13.80;99.90
8914;DHT22;4492;48.736;9.092;2023-08-06T06:32:52;13.80;99.90
8914;DHT22;4492;48.736;9.092;2023-08-06T06:35:17;13.80;99.90
8914;DHT22;4492;48.736;9.092;2023-08-06T06:37:43;13.80;99.90
8914;DHT22;4492;48.736;9.092;2023-08-06T06:40:09;13.80;99.90
8914;DHT22;4492;48.736;9.092;2023-08-06T06:42:34;13.80;99.90
8914;DHT22;4492;48.736;9.092;2023-08-06T06:45:00;13.90;99.90
8914;DHT22;4492;48.736;9.092;2023-08-06T06:47:25;14.00;99.90
8914;DHT22;4492;48.736;9.092;2023-08-06T06:49:51;14.00;99.90
8914;DHT22;4492;48.736;9.092;2023-08-06T06:52:16;14.00;99.90
8914;DHT22;4492;48.736;9.092;2023-08-06T06:54:42;13.90;99.90
8914;DHT22;4492;48.736;9.092;2023-08-06T06:57:07;13.90;99.90
8914;DHT22;4492;48.736;9.092;2023-08-06T06:59:33;13.80;99.90
8914;DHT22;4492;48.736;9.092;2023-08-06T07:01:58;13.70;99.90
8914;DHT22;4492;48.736;9.092;2023-08-06T07:04:24;13.70;99.90
8914;DHT22;4492;48.736;9.092;2023-08-06T07:06:49;13.70;99.90
8914;DHT22;4492;48.736;9.092;2023-08-06T07:09:17;13.80;99.90
8914;DHT22;4492;48.736;9.092;2023-08-06T07:11:42;13.80;99.90
8914;DHT22;4492;48.736;9.092;2023-08-06T07:14:09;13.70;99.90
8914;DHT22;4492;48.736;9.092;2023-08-06T07:16:35;13.60;99.90
8914;DHT22;4492;48.736;9.092;2023-08-06T07:19:00;13.60;99.90
8914;DHT22;4492;48.736;9.092;2023-08-06T07:21:26;13.50;99.90
8914;DHT22;4492;48.736;9.092;2023-08-06T07:23:51;13.50;99.90
8914;DHT22;4492;48.736;9.092;2023-08-06T07:26:17;13.40;99.90
8914;DHT22;4492;48.736;9.092;2023-08-06T07:28:43;13.50;99.90
8914;DHT22;4492;48.736;9.092;2023-08-06T07:31:09;13.50;99.90
8914;DHT22;4492;48.736;9.092;2023-08-06T07:33:35;13.50;99.90
8914;DHT22;4492;48.736;9.092;2023-08-06T07:36:11;13.50;99.90
8914;DHT22;4492;48.736;9.092;2023-08-06T07:38:37;13.60;99.90
8914;DHT22;4492;48.736;9.092;2023-08-06T07:41:03;13.60;99.90
8914;DHT22;4492;48.736;9.092;2023-08-06T07:43:29;13.60;99.90
8914;DHT22;4492;48.736;9.092;2023-08-06T07:45:58;13.70;99.90
8914;DHT22;4492;48.736;9.092;2023-08-06T07:48:24;13.80;99.90
8914;DHT22;4492;48.736;9.092;2023-08-06T07:50:52;13.90;99.90
8914;DHT22;4492;48.736;9.092;2023-08-06T07:53:19;13.90;99.90
8914;DHT22;4492;48.736;9.092;2023-08-06T07:55:50;14.00;99.90
8914;DHT22;4492;48.736;9.092;2023-08-06T07:58:22;14.10;99.90
8914;DHT22;4492;48.736;9.092;2023-08-06T08:00:48;14.20;99.90
8914;DHT22;4492;48.736;9.092;2023-08-06T08:03:14;14.30;99.90
8914;DHT22;4492;48.736;9.092;2023-08-06T08:05:41;14.40;99.90
8914;DHT22;4492;48.736;9.092;2023-08-06T08:08:07;14.50;99.90
8914;DHT22;4492;48.736;9.092;2023-08-06T08:10:33;14.50;99.90
8914;DHT22;4492;48.736;9.092;2023-08-06T08:13:02;14.60;99.90
8914;DHT22;4492;48.736;9.092;2023-08-06T08:15:28;14.70;99.90
8914;DHT22;4492;48.736;9.092;2023-08-06T08:17:54;14.70;99.90
8914;DHT22;4492;48.736;9.092;2023-08-06T08:20:20;14.70;99.90
8914;DHT22;4492;48.736;9.092;2023-08-06T08:22:46;14.80;99.90
8914;DHT22;4492;48.736;9.092;2023-08-06T08:25:12;14.80;99.90
8914;DHT22;4492;48.736;9.092;2023-08-06T08:27:37;14.80;99.90
8914;DHT22;4492;48.736;9.092;2023-08-06T08:30:03;14.80;99.90
8914;DHT22;4492;48.736;9.092;2023-08-06T08:32:29;14.80;99.90
8914;DHT22;4492;48.736;9.092;2023-08-06T08:34:54;14.80;99.90
8914;DHT22;4492;48.736;9.092;2023-08-06T08:37:20;14.70;99.90
8914;DHT22;4492;48.736;9.092;2023-08-06T08:39:45;14.70;99.90
8914;DHT22;4492;48.736;9.092;2023-08-06T08:42:11;14.70;99.90
8914;DHT22;4492;48.736;9.092;2023-08-06T08:44:37;14.70;99.90
8914;DHT22;4492;48.736;9.092;2023-08-06T08:47:06;14.70;99.90
8914;DHT22;4492;48.736;9.092;2023-08-06T08:49:32;14.70;99.90
8914;DHT22;4492;48.736;9.092;2023-08-06T08:51:59;14.80;99.90
8914;DHT22;4492;48.736;9.092;2023-08-06T08:54:25;14.90;99.90
8914;DHT22;4492;48.736;9.092;2023-08-06T08:56:51;14.90;99.90
8914;DHT22;4492;48.736;9.092;2023-08-06T08:59:17;14.90;99.90
8914;DHT22;4492;48.736;9.092;2023-08-06T09:01:42;15.00;99.90
8914;DHT22;4492;48.736;9.092;2023-08-06T09:04:09;15.10;99.90
8914;DHT22;4492;48.736;9.092;2023-08-06T09:06:37;15.10;99.90
8914;DHT22;4492;48.736;9.092;2023-08-06T09:09:12;15.20;99.90
8914;DHT22;4492;48.736;9.092;2023-08-06T09:11:45;15.30;99.90
8914;DHT22;4492;48.736;9.092;2023-08-06T09:14:11;15.70;99.90
8914;DHT22;4492;48.736;9.092;2023-08-06T09:16:37;16.10;99.90
8914;DHT22;4492;48.736;9.092;2023-08-06T09:19:10;16.20;99.90
8914;DHT22;4492;48.736;9.092;2023-08-06T09:21:41;16.20;99.90
8914;DHT22;4492;48.736;9.092;2023-08-06T09:24:11;16.30;99.90
8914;DHT22;4492;48.736;9.092;2023-08-06T09:26:38;16.30;99.90
8914;DHT22;4492;48.736;9.092;2023-08-06T09:29:06;16.40;99.90
8914;DHT22;4492;48.736;9.092;2023-08-06T09:31:42;16.30;99.90
8914;DHT22;4492;48.736;9.092;2023-08-06T09:34:12;16.50;99.90
8914;DHT22;4492;48.736;9.092;2023-08-06T09:36:41;16.50;99.90
8914;DHT22;4492;48.736;9.092;2023-08-06T09:39:18;16.40;99.90
8914;DHT22;4492;48.736;9.092;2023-08-06T09:41:44;16.50;99.90
8914;DHT22;4492;48.736;9.092;2023-08-06T09:44:17;16.60;99.90
8914;DHT22;4492;48.736;9.092;2023-08-06T09:46:47;16.70;99.90
8914;DHT22;4492;48.736;9.092;2023-08-06T09:49:13;16.70;99.90
8914;DHT22;4492;48.736;9.092;2023-08-06T09:51:39;16.60;99.90
8914;DHT22;4492;48.736;9.092;2023-08-06T09:54:05;16.60;99.90
8914;DHT22;4492;48.736;9.092;2023-08-06T09:56:33;16.50;99.90
8914;DHT22;4492;48.736;9.092;2023-08-06T09:59:07;16.50;99.90
8914;DHT22;4492;48.736;9.092;2023-08-06T10:01:35;16.50;99.90
8914;DHT22;4492;48.736;9.092;2023-08-06T10:04:05;16.40;99.90
8914;DHT22;4492;48.736;9.092;2023-08-06T10:06:34;16.30;99.90
8914;DHT22;4492;48.736;9.092;2023-08-06T10:09:00;16.10;99.90
8914;DHT22;4492;48.736;9.092;2023-08-06T10:11:26;16.00;99.90
8914;DHT22;4492;48.736;9.092;2023-08-06T10:14:21;15.80;99.90
8914;DHT22;4492;48.736;9.092;2023-08-06T10:16:44;15.80;99.90
8914;DHT22;4492;48.736;9.092;2023-08-06T10:19:12;15.60;99.90
8914;DHT22;4492;48.736;9.092;2023-08-06T10:21:39;15.40;99.90
8914;DHT22;4492;48.736;9.092;2023-08-06T10:24:07;15.30;99.90
8914;DHT22;4492;48.736;9.092;2023-08-06T10:26:35;15.30;99.90
8914;DHT22;4492;48.736;9.092;2023-08-06T10:29:01;15.30;99.90
8914;DHT22;4492;48.736;9.092;2023-08-06T10:31:55;15.30;99.90
8914;DHT22;4492;48.736;9.092;2023-08-06T10:34:23;15.40;99.90
8914;DHT22;4492;48.736;9.092;2023-08-06T10:36:50;15.40;99.90
8914;DHT22;4492;48.736;9.092;2023-08-06T10:39:19;15.30;99.90
8914;DHT22;4492;48.736;9.092;2023-08-06T10:41:44;15.50;99.90
8914;DHT22;4492;48.736;9.092;2023-08-06T10:44:11;15.60;99.90
8914;DHT22;4492;48.736;9.092;2023-08-06T10:46:37;15.80;99.90
8914;DHT22;4492;48.736;9.092;2023-08-06T10:49:03;15.90;99.90
8914;DHT22;4492;48.736;9.092;2023-08-06T10:51:30;16.00;99.90
8914;DHT22;4492;48.736;9.092;2023-08-06T10:53:55;16.30;99.90
8914;DHT22;4492;48.736;9.092;2023-08-06T10:56:24;16.30;99.90
8914;DHT22;4492;48.736;9.092;2023-08-06T10:58:56;16.10;99.90
8914;DHT22;4492;48.736;9.092;2023-08-06T11:01:22;16.00;99.90
8914;DHT22;4492;48.736;9.092;2023-08-06T11:03:50;16.20;99.90
8914;DHT22;4492;48.736;9.092;2023-08-06T11:06:22;16.10;99.90
8914;DHT22;4492;48.736;9.092;2023-08-06T11:08:50;15.90;99.90
8914;DHT22;4492;48.736;9.092;2023-08-06T11:11:17;15.80;99.90
8914;DHT22;4492;48.736;9.092;2023-08-06T11:13:44;15.60;99.90
8914;DHT22;4492;48.736;9.092;2023-08-06T11:16:14;15.30;99.90
8914;DHT22;4492;48.736;9.092;2023-08-06T11:18:41;15.10;99.90
8914;DHT22;4492;48.736;9.092;2023-08-06T11:21:10;14.90;99.90
8914;DHT22;4492;48.736;9.092;2023-08-06T11:23:37;14.90;99.90
8914;DHT22;4492;48.736;9.092;2023-08-06T11:26:02;15.00;99.90
8914;DHT22;4492;48.736;9.092;2023-08-06T11:28:28;15.40;99.90
8914;DHT22;4492;48.736;9.092;2023-08-06T11:30:54;15.90;99.90
8914;DHT22;4492;48.736;9.092;2023-08-06T11:33:22;16.00;99.90
8914;DHT22;4492;48.736;9.092;2023-08-06T11:35:48;15.90;99.90
8914;DHT22;4492;48.736;9.092;2023-08-06T11:38:14;15.60;99.90
8914;DHT22;4492;48.736;9.092;2023-08-06T11:40:43;15.40;99.90
8914;DHT22;4492;48.736;9.092;2023-08-06T11:43:09;15.40;99.90
8914;DHT22;4492;48.736;9.092;2023-08-06T11:45:37;15.30;99.90
8914;DHT22;4492;48.736;9.092;2023-08-06T11:48:03;15.30;99.90
8914;DHT22;4492;48.736;9.092;2023-08-06T11:50:29;15.30;99.90
8914;DHT22;4492;48.736;9.092;2023-08-06T11:52:59;15.10;99.90
8914;DHT22;4492;48.736;9.092;2023-08-06T11:55:27;15.00;99.90
8914;DHT22;4492;48.736;9.092;2023-08-06T11:57:53;14.70;99.90
8914;DHT22;4492;48.736;9.092;2023-08-06T12:00:19;14.50;99.90
8914;DHT22;4492;48.736;9.092;2023-08-06T12:02:48;14.50;99.90
8914;DHT22;4492;48.736;9.092;2023-08-06T12:05:19;14.60;99.90
8914;DHT22;4492;48.736;9.092;2023-08-06T12:07:47;14.70;99.90
8914;DHT22;4492;48.736;9.092;2023-08-06T12:10:14;14.70;99.90
8914;DHT22;4492;48.736;9.092;2023-08-06T12:12:39;15.00;99.90
8914;DHT22;4492;48.736;9.092;2023-08-06T12:15:06;15.10;99.90
8914;DHT22;4492;48.736;9.092;2023-08-06T12:17:33;15.10;99.90
8914;DHT22;4492;48.736;9.092;2023-08-06T12:19:58;14.90;99.90
8914;DHT22;4492;48.736;9.092;2023-08-06T12:22:24;14.90;99.90
8914;DHT22;4492;48.736;9.092;2023-08-06T12:24:50;15.00;99.90
8914;DHT22;4492;48.736;9.092;2023-08-06T12:27:15;15.10;99.90
8914;DHT22;4492;48.736;9.092;2023-08-06T12:29:48;15.10;99.90
8914;DHT22;4492;48.736;9.092;2023-08-06T12:32:14;15.10;99.90
8914;DHT22;4492;48.736;9.092;2023-08-06T12:34:41;15.30;99.90
8914;DHT22;4492;48.736;9.092;2023-08-06T12:37:07;15.70;99.90
8914;DHT22;4492;48.736;9.092;2023-08-06T12:39:33;16.10;99.90
8914;DHT22;4492;48.736;9.092;2023-08-06T12:42:03;16.60;99.90
8914;DHT22;4492;48.736;9.092;2023-08-06T12:44:29;16.80;99.90
8914;DHT22;4492;48.736;9.092;2023-08-06T12:46:55;16.70;99.90
8914;DHT22;4492;48.736;9.092;2023-08-06T12:49:21;16.60;99.90
8914;DHT22;4492;48.736;9.092;2023-08-06T12:51:47;16.40;99.90
8914;DHT22;4492;48.736;9.092;2023-08-06T12:54:13;16.10;99.90
8914;DHT22;4492;48.736;9.092;2023-08-06T12:56:38;15.90;99.90
8914;DHT22;4492;48.736;9.092;2023-08-06T12:59:04;15.90;99.90
8914;DHT22;4492;48.736;9.092;2023-08-06T13:01:29;15.90;99.90
8914;DHT22;4492;48.736;9.092;2023-08-06T13:03:55;15.80;99.90
8914;DHT22;4492;48.736;9.092;2023-08-06T13:06:20;15.70;99.90
8914;DHT22;4492;48.736;9.092;2023-08-06T13:08:46;15.70;99.90
8914;DHT22;4492;48.736;9.092;2023-08-06T13:11:11;15.80;99.90
8914;DHT22;4492;48.736;9.092;2023-08-06T13:13:37;16.10;99.90
8914;DHT22;4492;48.736;9.092;2023-08-06T13:16:03;16.20;99.90
8914;DHT22;4492;48.736;9.092;2023-08-06T13:18:28;16.40;99.90
8914;DHT22;4492;48.736;9.092;2023-08-06T13:20:54;16.70;99.90
8914;DHT22;4492;48.736;9.092;2023-08-06T13:23:20;16.80;99.90
8914;DHT22;4492;48.736;9.092;2023-08-06T13:25:46;16.80;99.90
8914;DHT22;4492;48.736;9.092;2023-08-06T13:28:12;16.90;99.90
8914;DHT22;4492;48.736;9.092;2023-08-06T13:30:39;16.80;99.90
8914;DHT22;4492;48.736;9.092;2023-08-06T13:33:08;16.70;99.90
8914;DHT22;4492;48.736;9.092;2023-08-06T13:35:33;16.80;99.90
8914;DHT22;4492;48.736;9.092;2023-08-06T13:37:59;16.60;99.90
8914;DHT22;4492;48.736;9.092;2023-08-06T13:40:24;16.40;99.90
8914;DHT22;4492;48.736;9.092;2023-08-06T13:42:50;16.30;99.90
8914;DHT22;4492;48.736;9.092;2023-08-06T13:45:16;16.30;99.90
8914;DHT22;4492;48.736;9.092;2023-08-06T13:47:41;16.20;99.90
8914;DHT22;4492;48.736;9.092;2023-08-06T13:50:07;16.40;99.90
8914;DHT22;4492;48.736;9.092;2023-08-06T13:52:33;16.70;99.90
8914;DHT22;4492;48.736;9.092;2023-08-06T13:55:01;16.80;99.90
8914;DHT22;4492;48.736;9.092;2023-08-06T13:57:26;16.90;99.90
8914;DHT22;4492;48.736;9.092;2023-08-06T13:59:52;16.90;99.90
8914;DHT22;4492;48.736;9.092;2023-08-06T14:02:17;17.20;99.90
8914;DHT22;4492;48.736;9.092;2023-08-06T14:04:43;17.40;99.90
8914;DHT22;4492;48.736;9.092;2023-08-06T14:07:08;17.90;99.90
8914;DHT22;4492;48.736;9.092;2023-08-06T14:09:34;18.10;99.90
8914;DHT22;4492;48.736;9.092;2023-08-06T14:12:00;18.10;99.90
8914;DHT22;4492;48.736;9.092;2023-08-06T14:14:25;17.90;99.90
8914;DHT22;4492;48.736;9.092;2023-08-06T14:16:52;17.90;99.90
8914;DHT22;4492;48.736;9.092;2023-08-06T14:19:17;17.80;99.90
8914;DHT22;4492;48.736;9.092;2023-08-06T14:21:43;17.70;99.90
8914;DHT22;4492;48.736;9.092;2023-08-06T14:24:08;17.40;99.90
8914;DHT22;4492;48.736;9.092;2023-08-06T14:26:34;17.20;99.90
8914;DHT22;4492;48.736;9.092;2023-08-06T14:29:01;17.20;99.90
8914;DHT22;4492;48.736;9.092;2023-08-06T14:31:26;17.50;99.90
8914;DHT22;4492;48.736;9.092;2023-08-06T14:33:52;17.60;99.90
8914;DHT22;4492;48.736;9.092;2023-08-06T14:36:18;17.50;99.90
8914;DHT22;4492;48.736;9.092;2023-08-06T14:38:43;17.10;99.90
8914;DHT22;4492;48.736;9.092;2023-08-06T14:41:09;16.80;99.90
8914;DHT22;4492;48.736;9.092;2023-08-06T14:43:34;16.60;99.90
8914;DHT22;4492;48.736;9.092;2023-08-06T14:46:00;16.40;99.90
8914;DHT22;4492;48.736;9.092;2023-08-06T14:48:25;16.00;99.90
8914;DHT22;4492;48.736;9.092;2023-08-06T14:50:51;15.70;99.90
8914;DHT22;4492;48.736;9.092;2023-08-06T14:53:17;15.40;99.90
8914;DHT22;4492;48.736;9.092;2023-08-06T14:55:42;15.30;99.90
8914;DHT22;4492;48.736;9.092;2023-08-06T14:58:08;15.30;99.90
8914;DHT22;4492;48.736;9.092;2023-08-06T15:00:33;15.20;99.90
8914;DHT22;4492;48.736;9.092;2023-08-06T15:02:59;15.20;99.90
8914;DHT22;4492;48.736;9.092;2023-08-06T15:05:25;15.20;99.90
8914;DHT22;4492;48.736;9.092;2023-08-06T15:07:50;15.20;99.90
8914;DHT22;4492;48.736;9.092;2023-08-06T15:10:18;15.30;99.90
8914;DHT22;4492;48.736;9.092;2023-08-06T15:12:43;15.40;99.90
8914;DHT22;4492;48.736;9.092;2023-08-06T15:15:09;15.70;99.90
8914;DHT22;4492;48.736;9.092;2023-08-06T15:17:35;16.20;99.90
8914;DHT22;4492;48.736;9.092;2023-08-06T15:20:01;16.70;99.90
8914;DHT22;4492;48.736;9.092;2023-08-06T15:22:26;16.90;99.90
8914;DHT22;4492;48.736;9.092;2023-08-06T15:24:52;17.20;99.90
8914;DHT22;4492;48.736;9.092;2023-08-06T15:27:18;17.20;99.90
8914;DHT22;4492;48.736;9.092;2023-08-06T15:29:43;17.30;99.90
8914;DHT22;4492;48.736;9.092;2023-08-06T15:32:09;17.40;99.90
8914;DHT22;4492;48.736;9.092;2023-08-06T15:34:35;17.80;99.90
8914;DHT22;4492;48.736;9.092;2023-08-06T15:37:00;17.80;99.90
8914;DHT22;4492;48.736;9.092;2023-08-06T15:39:26;17.50;99.90
8914;DHT22;4492;48.736;9.092;2023-08-06T15:41:52;17.30;99.90
8914;DHT22;4492;48.736;9.092;2023-08-06T15:44:17;17.50;99.90
8914;DHT22;4492;48.736;9.092;2023-08-06T15:46:43;17.50;99.90
8914;DHT22;4492;48.736;9.092;2023-08-06T15:49:08;17.80;99.90
8914;DHT22;4492;48.736;9.092;2023-08-06T15:51:34;17.90;99.90
8914;DHT22;4492;48.736;9.092;2023-08-06T15:53:59;17.60;99.90
8914;DHT22;4492;48.736;9.092;2023-08-06T15:56:25;17.60;99.90
8914;DHT22;4492;48.736;9.092;2023-08-06T15:58:50;17.30;99.90
8914;DHT22;4492;48.736;9.092;2023-08-06T16:01:16;17.00;99.90
8914;DHT22;4492;48.736;9.092;2023-08-06T16:03:42;16.70;99.90
8914;DHT22;4492;48.736;9.092;2023-08-06T16:06:11;16.60;99.90